<?xml version="1.0" encoding="UTF-8" standalone="no" ?>
<gpx xmlns="http://www.topografix.com/GPX/1/1" xmlns:xsi="http://www.w3.org/2001/XMLSchema-instance" xsi:schemaLocation="http://www.topografix.com/GPX/1/1 http://www.topografix.com/GPX/1/1/gpx.xsd" version="1.1" creator="VisuGPX - https://www.visugpx.com">
  <metadata>
    <name>Randonnée Campagne Boucle du polissoir</name>
    <desc><![CDATA[Randonnée Campagne Boucle du polissoir]]></desc>
  </metadata>
  <trk>
    <name><![CDATA[2021-07-10 09:24 +02:00]]></name>
    <trkseg>
      <trkpt lat="44.90677" lon="0.97542">
        <ele>138</ele>
        <time>2021-07-10T07:24:57.000Z</time>
      </trkpt>
      <trkpt lat="44.90669" lon="0.97552">
        <ele>137</ele>
        <time>2021-07-10T07:25:05.000Z</time>
      </trkpt>
      <trkpt lat="44.90666" lon="0.97565">
        <ele>133</ele>
        <time>2021-07-10T07:25:13.000Z</time>
      </trkpt>
      <trkpt lat="44.90662" lon="0.97577">
        <ele>129</ele>
        <time>2021-07-10T07:25:23.000Z</time>
      </trkpt>
      <trkpt lat="44.90657" lon="0.97589">
        <ele>132</ele>
        <time>2021-07-10T07:25:33.000Z</time>
      </trkpt>
      <trkpt lat="44.90653" lon="0.97601">
        <ele>131</ele>
        <time>2021-07-10T07:25:42.000Z</time>
      </trkpt>
      <trkpt lat="44.90649" lon="0.97614">
        <ele>132</ele>
        <time>2021-07-10T07:25:50.000Z</time>
      </trkpt>
      <trkpt lat="44.90646" lon="0.97628">
        <ele>129</ele>
        <time>2021-07-10T07:26:00.000Z</time>
      </trkpt>
      <trkpt lat="44.90641" lon="0.97639">
        <ele>126</ele>
        <time>2021-07-10T07:26:09.000Z</time>
      </trkpt>
      <trkpt lat="44.90636" lon="0.97649">
        <ele>125</ele>
        <time>2021-07-10T07:26:17.000Z</time>
      </trkpt>
      <trkpt lat="44.90631" lon="0.9766">
        <ele>121</ele>
        <time>2021-07-10T07:26:27.000Z</time>
      </trkpt>
      <trkpt lat="44.9064" lon="0.97654">
        <ele>121</ele>
        <time>2021-07-10T07:27:00.000Z</time>
      </trkpt>
      <trkpt lat="44.90644" lon="0.97642">
        <ele>120</ele>
        <time>2021-07-10T07:27:11.000Z</time>
      </trkpt>
      <trkpt lat="44.9065" lon="0.97632">
        <ele>120</ele>
        <time>2021-07-10T07:27:18.000Z</time>
      </trkpt>
      <trkpt lat="44.90656" lon="0.97622">
        <ele>118</ele>
        <time>2021-07-10T07:27:26.000Z</time>
      </trkpt>
      <trkpt lat="44.9066" lon="0.97611">
        <ele>117</ele>
        <time>2021-07-10T07:27:34.000Z</time>
      </trkpt>
      <trkpt lat="44.90667" lon="0.97601">
        <ele>118</ele>
        <time>2021-07-10T07:27:41.000Z</time>
      </trkpt>
      <trkpt lat="44.90674" lon="0.97591">
        <ele>119</ele>
        <time>2021-07-10T07:27:50.000Z</time>
      </trkpt>
      <trkpt lat="44.9068" lon="0.97581">
        <ele>119</ele>
        <time>2021-07-10T07:27:58.000Z</time>
      </trkpt>
      <trkpt lat="44.90685" lon="0.97569">
        <ele>118</ele>
        <time>2021-07-10T07:28:06.000Z</time>
      </trkpt>
      <trkpt lat="44.9069" lon="0.97556">
        <ele>117</ele>
        <time>2021-07-10T07:28:16.000Z</time>
      </trkpt>
      <trkpt lat="44.90693" lon="0.97544">
        <ele>116</ele>
        <time>2021-07-10T07:28:23.000Z</time>
      </trkpt>
      <trkpt lat="44.90696" lon="0.97531">
        <ele>117</ele>
        <time>2021-07-10T07:28:31.000Z</time>
      </trkpt>
      <trkpt lat="44.90701" lon="0.97517">
        <ele>116</ele>
        <time>2021-07-10T07:28:38.000Z</time>
      </trkpt>
      <trkpt lat="44.90703" lon="0.97504">
        <ele>117</ele>
        <time>2021-07-10T07:28:44.000Z</time>
      </trkpt>
      <trkpt lat="44.90705" lon="0.9749">
        <ele>117</ele>
        <time>2021-07-10T07:28:52.000Z</time>
      </trkpt>
      <trkpt lat="44.90707" lon="0.97477">
        <ele>118</ele>
        <time>2021-07-10T07:29:00.000Z</time>
      </trkpt>
      <trkpt lat="44.90712" lon="0.97466">
        <ele>118</ele>
        <time>2021-07-10T07:29:07.000Z</time>
      </trkpt>
      <trkpt lat="44.90714" lon="0.97452">
        <ele>119</ele>
        <time>2021-07-10T07:29:15.000Z</time>
      </trkpt>
      <trkpt lat="44.90714" lon="0.97438">
        <ele>119</ele>
        <time>2021-07-10T07:29:23.000Z</time>
      </trkpt>
      <trkpt lat="44.90714" lon="0.97424">
        <ele>121</ele>
        <time>2021-07-10T07:29:31.000Z</time>
      </trkpt>
      <trkpt lat="44.90714" lon="0.97412">
        <ele>121</ele>
        <time>2021-07-10T07:29:39.000Z</time>
      </trkpt>
      <trkpt lat="44.90713" lon="0.97399">
        <ele>122</ele>
        <time>2021-07-10T07:30:08.000Z</time>
      </trkpt>
      <trkpt lat="44.90718" lon="0.97387">
        <ele>130</ele>
        <time>2021-07-10T07:30:28.000Z</time>
      </trkpt>
      <trkpt lat="44.90722" lon="0.97376">
        <ele>129</ele>
        <time>2021-07-10T07:30:37.000Z</time>
      </trkpt>
      <trkpt lat="44.90724" lon="0.97362">
        <ele>129</ele>
        <time>2021-07-10T07:30:47.000Z</time>
      </trkpt>
      <trkpt lat="44.90729" lon="0.97351">
        <ele>128</ele>
        <time>2021-07-10T07:30:55.000Z</time>
      </trkpt>
      <trkpt lat="44.90736" lon="0.97341">
        <ele>128</ele>
        <time>2021-07-10T07:31:07.000Z</time>
      </trkpt>
      <trkpt lat="44.90743" lon="0.97349">
        <ele>135</ele>
        <time>2021-07-10T07:31:27.000Z</time>
      </trkpt>
      <trkpt lat="44.90747" lon="0.97361">
        <ele>138</ele>
        <time>2021-07-10T07:31:41.000Z</time>
      </trkpt>
      <trkpt lat="44.90749" lon="0.97373">
        <ele>142</ele>
        <time>2021-07-10T07:31:52.000Z</time>
      </trkpt>
      <trkpt lat="44.90749" lon="0.97386">
        <ele>143</ele>
        <time>2021-07-10T07:32:02.000Z</time>
      </trkpt>
      <trkpt lat="44.9075" lon="0.97373">
        <ele>145</ele>
        <time>2021-07-10T07:33:30.000Z</time>
      </trkpt>
      <trkpt lat="44.90758" lon="0.97367">
        <ele>153</ele>
        <time>2021-07-10T07:34:20.000Z</time>
      </trkpt>
      <trkpt lat="44.90759" lon="0.97354">
        <ele>155</ele>
        <time>2021-07-10T07:34:32.000Z</time>
      </trkpt>
      <trkpt lat="44.90763" lon="0.97342">
        <ele>155</ele>
        <time>2021-07-10T07:34:43.000Z</time>
      </trkpt>
      <trkpt lat="44.90769" lon="0.9733">
        <ele>157</ele>
        <time>2021-07-10T07:35:05.000Z</time>
      </trkpt>
      <trkpt lat="44.90769" lon="0.97317">
        <ele>154</ele>
        <time>2021-07-10T07:35:24.000Z</time>
      </trkpt>
      <trkpt lat="44.90772" lon="0.97304">
        <ele>155</ele>
        <time>2021-07-10T07:35:38.000Z</time>
      </trkpt>
      <trkpt lat="44.90774" lon="0.97292">
        <ele>157</ele>
        <time>2021-07-10T07:35:47.000Z</time>
      </trkpt>
      <trkpt lat="44.90777" lon="0.97279">
        <ele>157</ele>
        <time>2021-07-10T07:35:57.000Z</time>
      </trkpt>
      <trkpt lat="44.9078" lon="0.97267">
        <ele>157</ele>
        <time>2021-07-10T07:36:07.000Z</time>
      </trkpt>
      <trkpt lat="44.90782" lon="0.97254">
        <ele>158</ele>
        <time>2021-07-10T07:36:18.000Z</time>
      </trkpt>
      <trkpt lat="44.90784" lon="0.97241">
        <ele>157</ele>
        <time>2021-07-10T07:36:26.000Z</time>
      </trkpt>
      <trkpt lat="44.90789" lon="0.97229">
        <ele>157</ele>
        <time>2021-07-10T07:36:40.000Z</time>
      </trkpt>
      <trkpt lat="44.90794" lon="0.97217">
        <ele>158</ele>
        <time>2021-07-10T07:36:53.000Z</time>
      </trkpt>
      <trkpt lat="44.90796" lon="0.97204">
        <ele>158</ele>
        <time>2021-07-10T07:37:11.000Z</time>
      </trkpt>
      <trkpt lat="44.90797" lon="0.9719">
        <ele>160</ele>
        <time>2021-07-10T07:37:27.000Z</time>
      </trkpt>
      <trkpt lat="44.90803" lon="0.9718">
        <ele>157</ele>
        <time>2021-07-10T07:37:35.000Z</time>
      </trkpt>
      <trkpt lat="44.90808" lon="0.97169">
        <ele>158</ele>
        <time>2021-07-10T07:37:50.000Z</time>
      </trkpt>
      <trkpt lat="44.90815" lon="0.97162">
        <ele>158</ele>
        <time>2021-07-10T07:37:57.000Z</time>
      </trkpt>
      <trkpt lat="44.9082" lon="0.9715">
        <ele>159</ele>
        <time>2021-07-10T07:38:08.000Z</time>
      </trkpt>
      <trkpt lat="44.90827" lon="0.97141">
        <ele>159</ele>
        <time>2021-07-10T07:38:18.000Z</time>
      </trkpt>
      <trkpt lat="44.90833" lon="0.9713">
        <ele>160</ele>
        <time>2021-07-10T07:38:27.000Z</time>
      </trkpt>
      <trkpt lat="44.90838" lon="0.97118">
        <ele>160</ele>
        <time>2021-07-10T07:38:35.000Z</time>
      </trkpt>
      <trkpt lat="44.90847" lon="0.97116">
        <ele>159</ele>
        <time>2021-07-10T07:38:53.000Z</time>
      </trkpt>
      <trkpt lat="44.90849" lon="0.97104">
        <ele>156</ele>
        <time>2021-07-10T07:39:22.000Z</time>
      </trkpt>
      <trkpt lat="44.90852" lon="0.9709">
        <ele>157</ele>
        <time>2021-07-10T07:39:36.000Z</time>
      </trkpt>
      <trkpt lat="44.90859" lon="0.97078">
        <ele>155</ele>
        <time>2021-07-10T07:39:47.000Z</time>
      </trkpt>
      <trkpt lat="44.9086" lon="0.97064">
        <ele>153</ele>
        <time>2021-07-10T07:40:22.000Z</time>
      </trkpt>
      <trkpt lat="44.90869" lon="0.97061">
        <ele>154</ele>
        <time>2021-07-10T07:41:02.000Z</time>
      </trkpt>
      <trkpt lat="44.90871" lon="0.97047">
        <ele>156</ele>
        <time>2021-07-10T07:41:17.000Z</time>
      </trkpt>
      <trkpt lat="44.90879" lon="0.97041">
        <ele>155</ele>
        <time>2021-07-10T07:41:24.000Z</time>
      </trkpt>
      <trkpt lat="44.90884" lon="0.9703">
        <ele>153</ele>
        <time>2021-07-10T07:41:45.000Z</time>
      </trkpt>
      <trkpt lat="44.90893" lon="0.97025">
        <ele>154</ele>
        <time>2021-07-10T07:42:08.000Z</time>
      </trkpt>
      <trkpt lat="44.90901" lon="0.9702">
        <ele>152</ele>
        <time>2021-07-10T07:43:00.000Z</time>
      </trkpt>
      <trkpt lat="44.90907" lon="0.97009">
        <ele>150</ele>
        <time>2021-07-10T07:43:21.000Z</time>
      </trkpt>
      <trkpt lat="44.90916" lon="0.97006">
        <ele>146</ele>
        <time>2021-07-10T07:43:54.000Z</time>
      </trkpt>
      <trkpt lat="44.90923" lon="0.96996">
        <ele>148</ele>
        <time>2021-07-10T07:44:58.000Z</time>
      </trkpt>
      <trkpt lat="44.90932" lon="0.96997">
        <ele>151</ele>
        <time>2021-07-10T07:45:16.000Z</time>
      </trkpt>
      <trkpt lat="44.90942" lon="0.96995">
        <ele>150</ele>
        <time>2021-07-10T07:47:46.000Z</time>
      </trkpt>
      <trkpt lat="44.90951" lon="0.96995">
        <ele>149</ele>
        <time>2021-07-10T07:47:56.000Z</time>
      </trkpt>
      <trkpt lat="44.90961" lon="0.9699">
        <ele>148</ele>
        <time>2021-07-10T07:48:08.000Z</time>
      </trkpt>
      <trkpt lat="44.90969" lon="0.96983">
        <ele>147</ele>
        <time>2021-07-10T07:48:17.000Z</time>
      </trkpt>
      <trkpt lat="44.90977" lon="0.96979">
        <ele>144</ele>
        <time>2021-07-10T07:48:28.000Z</time>
      </trkpt>
      <trkpt lat="44.90986" lon="0.96977">
        <ele>143</ele>
        <time>2021-07-10T07:48:42.000Z</time>
      </trkpt>
      <trkpt lat="44.90995" lon="0.96971">
        <ele>141</ele>
        <time>2021-07-10T07:48:52.000Z</time>
      </trkpt>
      <trkpt lat="44.91004" lon="0.96968">
        <ele>141</ele>
        <time>2021-07-10T07:49:01.000Z</time>
      </trkpt>
      <trkpt lat="44.91013" lon="0.96965">
        <ele>140</ele>
        <time>2021-07-10T07:49:11.000Z</time>
      </trkpt>
      <trkpt lat="44.91022" lon="0.96964">
        <ele>138</ele>
        <time>2021-07-10T07:49:20.000Z</time>
      </trkpt>
      <trkpt lat="44.91032" lon="0.96959">
        <ele>138</ele>
        <time>2021-07-10T07:49:31.000Z</time>
      </trkpt>
      <trkpt lat="44.91041" lon="0.96959">
        <ele>138</ele>
        <time>2021-07-10T07:49:42.000Z</time>
      </trkpt>
      <trkpt lat="44.91049" lon="0.96953">
        <ele>136</ele>
        <time>2021-07-10T07:49:51.000Z</time>
      </trkpt>
      <trkpt lat="44.91058" lon="0.9695">
        <ele>134</ele>
        <time>2021-07-10T07:49:59.000Z</time>
      </trkpt>
      <trkpt lat="44.91067" lon="0.96947">
        <ele>132</ele>
        <time>2021-07-10T07:50:08.000Z</time>
      </trkpt>
      <trkpt lat="44.91077" lon="0.96941">
        <ele>131</ele>
        <time>2021-07-10T07:50:18.000Z</time>
      </trkpt>
      <trkpt lat="44.91087" lon="0.96941">
        <ele>129</ele>
        <time>2021-07-10T07:50:28.000Z</time>
      </trkpt>
      <trkpt lat="44.91096" lon="0.96942">
        <ele>130</ele>
        <time>2021-07-10T07:50:37.000Z</time>
      </trkpt>
      <trkpt lat="44.91107" lon="0.96946">
        <ele>129</ele>
        <time>2021-07-10T07:50:48.000Z</time>
      </trkpt>
      <trkpt lat="44.91116" lon="0.96946">
        <ele>128</ele>
        <time>2021-07-10T07:50:56.000Z</time>
      </trkpt>
      <trkpt lat="44.91126" lon="0.96951">
        <ele>128</ele>
        <time>2021-07-10T07:51:04.000Z</time>
      </trkpt>
      <trkpt lat="44.91134" lon="0.96955">
        <ele>128</ele>
        <time>2021-07-10T07:51:14.000Z</time>
      </trkpt>
      <trkpt lat="44.91143" lon="0.96957">
        <ele>129</ele>
        <time>2021-07-10T07:51:25.000Z</time>
      </trkpt>
      <trkpt lat="44.9115" lon="0.96968">
        <ele>127</ele>
        <time>2021-07-10T07:51:49.000Z</time>
      </trkpt>
      <trkpt lat="44.91159" lon="0.96973">
        <ele>126</ele>
        <time>2021-07-10T07:52:00.000Z</time>
      </trkpt>
      <trkpt lat="44.91168" lon="0.96976">
        <ele>129</ele>
        <time>2021-07-10T07:52:09.000Z</time>
      </trkpt>
      <trkpt lat="44.91176" lon="0.96981">
        <ele>129</ele>
        <time>2021-07-10T07:52:18.000Z</time>
      </trkpt>
      <trkpt lat="44.91186" lon="0.96984">
        <ele>128</ele>
        <time>2021-07-10T07:52:29.000Z</time>
      </trkpt>
      <trkpt lat="44.91194" lon="0.96991">
        <ele>126</ele>
        <time>2021-07-10T07:52:35.000Z</time>
      </trkpt>
      <trkpt lat="44.91204" lon="0.9699">
        <ele>129</ele>
        <time>2021-07-10T07:52:45.000Z</time>
      </trkpt>
      <trkpt lat="44.91213" lon="0.96989">
        <ele>131</ele>
        <time>2021-07-10T07:52:51.000Z</time>
      </trkpt>
      <trkpt lat="44.91223" lon="0.9699">
        <ele>133</ele>
        <time>2021-07-10T07:52:58.000Z</time>
      </trkpt>
      <trkpt lat="44.91232" lon="0.96993">
        <ele>133</ele>
        <time>2021-07-10T07:53:05.000Z</time>
      </trkpt>
      <trkpt lat="44.91241" lon="0.96994">
        <ele>132</ele>
        <time>2021-07-10T07:53:14.000Z</time>
      </trkpt>
      <trkpt lat="44.91251" lon="0.96997">
        <ele>134</ele>
        <time>2021-07-10T07:53:22.000Z</time>
      </trkpt>
      <trkpt lat="44.91261" lon="0.96999">
        <ele>133</ele>
        <time>2021-07-10T07:53:29.000Z</time>
      </trkpt>
      <trkpt lat="44.9127" lon="0.97002">
        <ele>134</ele>
        <time>2021-07-10T07:53:38.000Z</time>
      </trkpt>
      <trkpt lat="44.91279" lon="0.97007">
        <ele>134</ele>
        <time>2021-07-10T07:53:46.000Z</time>
      </trkpt>
      <trkpt lat="44.91287" lon="0.97014">
        <ele>135</ele>
        <time>2021-07-10T07:53:55.000Z</time>
      </trkpt>
      <trkpt lat="44.91296" lon="0.97018">
        <ele>137</ele>
        <time>2021-07-10T07:54:05.000Z</time>
      </trkpt>
      <trkpt lat="44.91305" lon="0.97019">
        <ele>140</ele>
        <time>2021-07-10T07:54:12.000Z</time>
      </trkpt>
      <trkpt lat="44.91314" lon="0.97019">
        <ele>137</ele>
        <time>2021-07-10T07:54:20.000Z</time>
      </trkpt>
      <trkpt lat="44.91319" lon="0.97031">
        <ele>137</ele>
        <time>2021-07-10T07:54:28.000Z</time>
      </trkpt>
      <trkpt lat="44.91314" lon="0.97041">
        <ele>137</ele>
        <time>2021-07-10T07:54:36.000Z</time>
      </trkpt>
      <trkpt lat="44.91306" lon="0.97048">
        <ele>138</ele>
        <time>2021-07-10T07:54:46.000Z</time>
      </trkpt>
      <trkpt lat="44.91297" lon="0.97052">
        <ele>139</ele>
        <time>2021-07-10T07:54:58.000Z</time>
      </trkpt>
      <trkpt lat="44.91287" lon="0.97055">
        <ele>137</ele>
        <time>2021-07-10T07:55:07.000Z</time>
      </trkpt>
      <trkpt lat="44.91279" lon="0.9706">
        <ele>138</ele>
        <time>2021-07-10T07:55:17.000Z</time>
      </trkpt>
      <trkpt lat="44.9127" lon="0.97065">
        <ele>137</ele>
        <time>2021-07-10T07:55:27.000Z</time>
      </trkpt>
      <trkpt lat="44.91279" lon="0.97077">
        <ele>147</ele>
        <time>2021-07-10T07:55:52.000Z</time>
      </trkpt>
      <trkpt lat="44.9129" lon="0.97084">
        <ele>152</ele>
        <time>2021-07-10T07:56:04.000Z</time>
      </trkpt>
      <trkpt lat="44.91297" lon="0.97093">
        <ele>151</ele>
        <time>2021-07-10T07:56:13.000Z</time>
      </trkpt>
      <trkpt lat="44.91305" lon="0.97102">
        <ele>152</ele>
        <time>2021-07-10T07:56:21.000Z</time>
      </trkpt>
      <trkpt lat="44.91311" lon="0.9711">
        <ele>152</ele>
        <time>2021-07-10T07:56:29.000Z</time>
      </trkpt>
      <trkpt lat="44.91319" lon="0.97116">
        <ele>154</ele>
        <time>2021-07-10T07:56:39.000Z</time>
      </trkpt>
      <trkpt lat="44.91326" lon="0.97127">
        <ele>155</ele>
        <time>2021-07-10T07:56:50.000Z</time>
      </trkpt>
      <trkpt lat="44.91334" lon="0.97134">
        <ele>155</ele>
        <time>2021-07-10T07:56:59.000Z</time>
      </trkpt>
      <trkpt lat="44.91342" lon="0.9714">
        <ele>157</ele>
        <time>2021-07-10T07:57:14.000Z</time>
      </trkpt>
      <trkpt lat="44.91349" lon="0.97147">
        <ele>156</ele>
        <time>2021-07-10T07:57:23.000Z</time>
      </trkpt>
      <trkpt lat="44.91358" lon="0.97151">
        <ele>157</ele>
        <time>2021-07-10T07:57:31.000Z</time>
      </trkpt>
      <trkpt lat="44.91368" lon="0.97156">
        <ele>159</ele>
        <time>2021-07-10T07:57:41.000Z</time>
      </trkpt>
      <trkpt lat="44.91376" lon="0.97163">
        <ele>161</ele>
        <time>2021-07-10T07:57:49.000Z</time>
      </trkpt>
      <trkpt lat="44.91384" lon="0.97172">
        <ele>160</ele>
        <time>2021-07-10T07:57:58.000Z</time>
      </trkpt>
      <trkpt lat="44.91391" lon="0.9718">
        <ele>161</ele>
        <time>2021-07-10T07:58:06.000Z</time>
      </trkpt>
      <trkpt lat="44.914" lon="0.97186">
        <ele>161</ele>
        <time>2021-07-10T07:58:15.000Z</time>
      </trkpt>
      <trkpt lat="44.91408" lon="0.97192">
        <ele>162</ele>
        <time>2021-07-10T07:58:22.000Z</time>
      </trkpt>
      <trkpt lat="44.91417" lon="0.97201">
        <ele>161</ele>
        <time>2021-07-10T07:58:30.000Z</time>
      </trkpt>
      <trkpt lat="44.91425" lon="0.97208">
        <ele>161</ele>
        <time>2021-07-10T07:58:39.000Z</time>
      </trkpt>
      <trkpt lat="44.91433" lon="0.97216">
        <ele>161</ele>
        <time>2021-07-10T07:58:51.000Z</time>
      </trkpt>
      <trkpt lat="44.91441" lon="0.97226">
        <ele>156</ele>
        <time>2021-07-10T07:59:01.000Z</time>
      </trkpt>
      <trkpt lat="44.91448" lon="0.97235">
        <ele>155</ele>
        <time>2021-07-10T07:59:09.000Z</time>
      </trkpt>
      <trkpt lat="44.91456" lon="0.97243">
        <ele>155</ele>
        <time>2021-07-10T07:59:19.000Z</time>
      </trkpt>
      <trkpt lat="44.91461" lon="0.97255">
        <ele>154</ele>
        <time>2021-07-10T07:59:28.000Z</time>
      </trkpt>
      <trkpt lat="44.91467" lon="0.97266">
        <ele>153</ele>
        <time>2021-07-10T07:59:36.000Z</time>
      </trkpt>
      <trkpt lat="44.91472" lon="0.97277">
        <ele>154</ele>
        <time>2021-07-10T07:59:43.000Z</time>
      </trkpt>
      <trkpt lat="44.91476" lon="0.97291">
        <ele>154</ele>
        <time>2021-07-10T07:59:53.000Z</time>
      </trkpt>
      <trkpt lat="44.91479" lon="0.97304">
        <ele>153</ele>
        <time>2021-07-10T08:00:04.000Z</time>
      </trkpt>
      <trkpt lat="44.91482" lon="0.97316">
        <ele>153</ele>
        <time>2021-07-10T08:00:15.000Z</time>
      </trkpt>
      <trkpt lat="44.91484" lon="0.97329">
        <ele>155</ele>
        <time>2021-07-10T08:00:22.000Z</time>
      </trkpt>
      <trkpt lat="44.91485" lon="0.97342">
        <ele>156</ele>
        <time>2021-07-10T08:00:32.000Z</time>
      </trkpt>
      <trkpt lat="44.91489" lon="0.97356">
        <ele>156</ele>
        <time>2021-07-10T08:00:40.000Z</time>
      </trkpt>
      <trkpt lat="44.91491" lon="0.97369">
        <ele>156</ele>
        <time>2021-07-10T08:00:50.000Z</time>
      </trkpt>
      <trkpt lat="44.91491" lon="0.97383">
        <ele>158</ele>
        <time>2021-07-10T08:02:59.000Z</time>
      </trkpt>
      <trkpt lat="44.91492" lon="0.97396">
        <ele>160</ele>
        <time>2021-07-10T08:03:11.000Z</time>
      </trkpt>
      <trkpt lat="44.9149" lon="0.97408">
        <ele>161</ele>
        <time>2021-07-10T08:03:21.000Z</time>
      </trkpt>
      <trkpt lat="44.91487" lon="0.97421">
        <ele>160</ele>
        <time>2021-07-10T08:03:30.000Z</time>
      </trkpt>
      <trkpt lat="44.91485" lon="0.97434">
        <ele>162</ele>
        <time>2021-07-10T08:03:40.000Z</time>
      </trkpt>
      <trkpt lat="44.9148" lon="0.97445">
        <ele>164</ele>
        <time>2021-07-10T08:03:49.000Z</time>
      </trkpt>
      <trkpt lat="44.91474" lon="0.97454">
        <ele>163</ele>
        <time>2021-07-10T08:03:58.000Z</time>
      </trkpt>
      <trkpt lat="44.91466" lon="0.97462">
        <ele>162</ele>
        <time>2021-07-10T08:04:05.000Z</time>
      </trkpt>
      <trkpt lat="44.9146" lon="0.97472">
        <ele>162</ele>
        <time>2021-07-10T08:04:14.000Z</time>
      </trkpt>
      <trkpt lat="44.91452" lon="0.97481">
        <ele>162</ele>
        <time>2021-07-10T08:04:25.000Z</time>
      </trkpt>
      <trkpt lat="44.91444" lon="0.97487">
        <ele>165</ele>
        <time>2021-07-10T08:04:34.000Z</time>
      </trkpt>
      <trkpt lat="44.91437" lon="0.97497">
        <ele>166</ele>
        <time>2021-07-10T08:04:44.000Z</time>
      </trkpt>
      <trkpt lat="44.9143" lon="0.97505">
        <ele>166</ele>
        <time>2021-07-10T08:04:53.000Z</time>
      </trkpt>
      <trkpt lat="44.91423" lon="0.97515">
        <ele>167</ele>
        <time>2021-07-10T08:05:01.000Z</time>
      </trkpt>
      <trkpt lat="44.91419" lon="0.97528">
        <ele>166</ele>
        <time>2021-07-10T08:05:13.000Z</time>
      </trkpt>
      <trkpt lat="44.91415" lon="0.9754">
        <ele>168</ele>
        <time>2021-07-10T08:05:23.000Z</time>
      </trkpt>
      <trkpt lat="44.91415" lon="0.97553">
        <ele>166</ele>
        <time>2021-07-10T08:05:32.000Z</time>
      </trkpt>
      <trkpt lat="44.91412" lon="0.97566">
        <ele>167</ele>
        <time>2021-07-10T08:05:41.000Z</time>
      </trkpt>
      <trkpt lat="44.91408" lon="0.97578">
        <ele>168</ele>
        <time>2021-07-10T08:05:49.000Z</time>
      </trkpt>
      <trkpt lat="44.91405" lon="0.97591">
        <ele>169</ele>
        <time>2021-07-10T08:05:58.000Z</time>
      </trkpt>
      <trkpt lat="44.914" lon="0.97604">
        <ele>171</ele>
        <time>2021-07-10T08:06:07.000Z</time>
      </trkpt>
      <trkpt lat="44.91393" lon="0.97613">
        <ele>170</ele>
        <time>2021-07-10T08:06:16.000Z</time>
      </trkpt>
      <trkpt lat="44.91387" lon="0.97623">
        <ele>172</ele>
        <time>2021-07-10T08:06:24.000Z</time>
      </trkpt>
      <trkpt lat="44.91378" lon="0.97629">
        <ele>175</ele>
        <time>2021-07-10T08:06:32.000Z</time>
      </trkpt>
      <trkpt lat="44.91372" lon="0.97639">
        <ele>177</ele>
        <time>2021-07-10T08:06:40.000Z</time>
      </trkpt>
      <trkpt lat="44.91365" lon="0.97646">
        <ele>177</ele>
        <time>2021-07-10T08:06:51.000Z</time>
      </trkpt>
      <trkpt lat="44.91359" lon="0.97656">
        <ele>176</ele>
        <time>2021-07-10T08:07:03.000Z</time>
      </trkpt>
      <trkpt lat="44.91351" lon="0.97666">
        <ele>177</ele>
        <time>2021-07-10T08:07:12.000Z</time>
      </trkpt>
      <trkpt lat="44.91343" lon="0.97673">
        <ele>178</ele>
        <time>2021-07-10T08:07:21.000Z</time>
      </trkpt>
      <trkpt lat="44.91338" lon="0.97684">
        <ele>178</ele>
        <time>2021-07-10T08:07:32.000Z</time>
      </trkpt>
      <trkpt lat="44.91332" lon="0.97695">
        <ele>178</ele>
        <time>2021-07-10T08:07:42.000Z</time>
      </trkpt>
      <trkpt lat="44.91327" lon="0.97707">
        <ele>179</ele>
        <time>2021-07-10T08:07:52.000Z</time>
      </trkpt>
      <trkpt lat="44.91319" lon="0.97715">
        <ele>180</ele>
        <time>2021-07-10T08:08:02.000Z</time>
      </trkpt>
      <trkpt lat="44.91312" lon="0.97725">
        <ele>180</ele>
        <time>2021-07-10T08:08:12.000Z</time>
      </trkpt>
      <trkpt lat="44.91306" lon="0.97735">
        <ele>184</ele>
        <time>2021-07-10T08:08:24.000Z</time>
      </trkpt>
      <trkpt lat="44.91297" lon="0.9774">
        <ele>186</ele>
        <time>2021-07-10T08:08:33.000Z</time>
      </trkpt>
      <trkpt lat="44.91289" lon="0.97746">
        <ele>189</ele>
        <time>2021-07-10T08:08:41.000Z</time>
      </trkpt>
      <trkpt lat="44.91282" lon="0.97754">
        <ele>190</ele>
        <time>2021-07-10T08:08:51.000Z</time>
      </trkpt>
      <trkpt lat="44.91275" lon="0.97763">
        <ele>190</ele>
        <time>2021-07-10T08:08:59.000Z</time>
      </trkpt>
      <trkpt lat="44.91269" lon="0.97773">
        <ele>190</ele>
        <time>2021-07-10T08:09:09.000Z</time>
      </trkpt>
      <trkpt lat="44.91263" lon="0.97783">
        <ele>192</ele>
        <time>2021-07-10T08:09:21.000Z</time>
      </trkpt>
      <trkpt lat="44.91256" lon="0.97792">
        <ele>194</ele>
        <time>2021-07-10T08:09:30.000Z</time>
      </trkpt>
      <trkpt lat="44.91248" lon="0.978">
        <ele>195</ele>
        <time>2021-07-10T08:12:17.000Z</time>
      </trkpt>
      <trkpt lat="44.91244" lon="0.97812">
        <ele>192</ele>
        <time>2021-07-10T08:12:29.000Z</time>
      </trkpt>
      <trkpt lat="44.91242" lon="0.97825">
        <ele>195</ele>
        <time>2021-07-10T08:12:38.000Z</time>
      </trkpt>
      <trkpt lat="44.91238" lon="0.9784">
        <ele>196</ele>
        <time>2021-07-10T08:12:54.000Z</time>
      </trkpt>
      <trkpt lat="44.91236" lon="0.97854">
        <ele>196</ele>
        <time>2021-07-10T08:13:04.000Z</time>
      </trkpt>
      <trkpt lat="44.91234" lon="0.97866">
        <ele>198</ele>
        <time>2021-07-10T08:13:19.000Z</time>
      </trkpt>
      <trkpt lat="44.91231" lon="0.97879">
        <ele>197</ele>
        <time>2021-07-10T08:13:32.000Z</time>
      </trkpt>
      <trkpt lat="44.91228" lon="0.97892">
        <ele>198</ele>
        <time>2021-07-10T08:13:43.000Z</time>
      </trkpt>
      <trkpt lat="44.91228" lon="0.97905">
        <ele>198</ele>
        <time>2021-07-10T08:13:54.000Z</time>
      </trkpt>
      <trkpt lat="44.91227" lon="0.97919">
        <ele>198</ele>
        <time>2021-07-10T08:14:04.000Z</time>
      </trkpt>
      <trkpt lat="44.91225" lon="0.97932">
        <ele>200</ele>
        <time>2021-07-10T08:14:14.000Z</time>
      </trkpt>
      <trkpt lat="44.91223" lon="0.97945">
        <ele>199</ele>
        <time>2021-07-10T08:14:23.000Z</time>
      </trkpt>
      <trkpt lat="44.91219" lon="0.97957">
        <ele>201</ele>
        <time>2021-07-10T08:14:32.000Z</time>
      </trkpt>
      <trkpt lat="44.91212" lon="0.97966">
        <ele>203</ele>
        <time>2021-07-10T08:14:43.000Z</time>
      </trkpt>
      <trkpt lat="44.9121" lon="0.97979">
        <ele>202</ele>
        <time>2021-07-10T08:14:57.000Z</time>
      </trkpt>
      <trkpt lat="44.91217" lon="0.97987">
        <ele>205</ele>
        <time>2021-07-10T08:15:11.000Z</time>
      </trkpt>
      <trkpt lat="44.91224" lon="0.97995">
        <ele>205</ele>
        <time>2021-07-10T08:15:27.000Z</time>
      </trkpt>
      <trkpt lat="44.9123" lon="0.98005">
        <ele>201</ele>
        <time>2021-07-10T08:15:35.000Z</time>
      </trkpt>
      <trkpt lat="44.91227" lon="0.98017">
        <ele>202</ele>
        <time>2021-07-10T08:15:45.000Z</time>
      </trkpt>
      <trkpt lat="44.91217" lon="0.98023">
        <ele>204</ele>
        <time>2021-07-10T08:15:59.000Z</time>
      </trkpt>
      <trkpt lat="44.91208" lon="0.98027">
        <ele>206</ele>
        <time>2021-07-10T08:16:09.000Z</time>
      </trkpt>
      <trkpt lat="44.912" lon="0.98034">
        <ele>209</ele>
        <time>2021-07-10T08:16:20.000Z</time>
      </trkpt>
      <trkpt lat="44.91201" lon="0.98047">
        <ele>215</ele>
        <time>2021-07-10T08:17:16.000Z</time>
      </trkpt>
      <trkpt lat="44.91208" lon="0.98057">
        <ele>215</ele>
        <time>2021-07-10T08:17:28.000Z</time>
      </trkpt>
      <trkpt lat="44.91215" lon="0.98066">
        <ele>216</ele>
        <time>2021-07-10T08:17:36.000Z</time>
      </trkpt>
      <trkpt lat="44.91222" lon="0.98076">
        <ele>217</ele>
        <time>2021-07-10T08:17:45.000Z</time>
      </trkpt>
      <trkpt lat="44.91225" lon="0.9809">
        <ele>217</ele>
        <time>2021-07-10T08:17:58.000Z</time>
      </trkpt>
      <trkpt lat="44.91232" lon="0.98099">
        <ele>220</ele>
        <time>2021-07-10T08:18:09.000Z</time>
      </trkpt>
      <trkpt lat="44.91242" lon="0.98101">
        <ele>223</ele>
        <time>2021-07-10T08:18:24.000Z</time>
      </trkpt>
      <trkpt lat="44.91251" lon="0.981">
        <ele>222</ele>
        <time>2021-07-10T08:18:32.000Z</time>
      </trkpt>
      <trkpt lat="44.9126" lon="0.98096">
        <ele>223</ele>
        <time>2021-07-10T08:18:40.000Z</time>
      </trkpt>
      <trkpt lat="44.91267" lon="0.98087">
        <ele>223</ele>
        <time>2021-07-10T08:18:50.000Z</time>
      </trkpt>
      <trkpt lat="44.91274" lon="0.98078">
        <ele>223</ele>
        <time>2021-07-10T08:19:01.000Z</time>
      </trkpt>
      <trkpt lat="44.9128" lon="0.98068">
        <ele>224</ele>
        <time>2021-07-10T08:19:12.000Z</time>
      </trkpt>
      <trkpt lat="44.91286" lon="0.98058">
        <ele>222</ele>
        <time>2021-07-10T08:19:22.000Z</time>
      </trkpt>
      <trkpt lat="44.91292" lon="0.98048">
        <ele>223</ele>
        <time>2021-07-10T08:19:30.000Z</time>
      </trkpt>
      <trkpt lat="44.91297" lon="0.98037">
        <ele>222</ele>
        <time>2021-07-10T08:19:39.000Z</time>
      </trkpt>
      <trkpt lat="44.91304" lon="0.98029">
        <ele>223</ele>
        <time>2021-07-10T08:19:49.000Z</time>
      </trkpt>
      <trkpt lat="44.91312" lon="0.98022">
        <ele>222</ele>
        <time>2021-07-10T08:20:00.000Z</time>
      </trkpt>
      <trkpt lat="44.91321" lon="0.98023">
        <ele>225</ele>
        <time>2021-07-10T08:20:12.000Z</time>
      </trkpt>
      <trkpt lat="44.91328" lon="0.98033">
        <ele>228</ele>
        <time>2021-07-10T08:20:22.000Z</time>
      </trkpt>
      <trkpt lat="44.91332" lon="0.98044">
        <ele>231</ele>
        <time>2021-07-10T08:20:37.000Z</time>
      </trkpt>
      <trkpt lat="44.91336" lon="0.98057">
        <ele>233</ele>
        <time>2021-07-10T08:20:48.000Z</time>
      </trkpt>
      <trkpt lat="44.91336" lon="0.9807">
        <ele>230</ele>
        <time>2021-07-10T08:20:56.000Z</time>
      </trkpt>
      <trkpt lat="44.91335" lon="0.98083">
        <ele>234</ele>
        <time>2021-07-10T08:21:07.000Z</time>
      </trkpt>
      <trkpt lat="44.91335" lon="0.98096">
        <ele>238</ele>
        <time>2021-07-10T08:21:15.000Z</time>
      </trkpt>
      <trkpt lat="44.91334" lon="0.9811">
        <ele>239</ele>
        <time>2021-07-10T08:21:23.000Z</time>
      </trkpt>
      <trkpt lat="44.91332" lon="0.98123">
        <ele>239</ele>
        <time>2021-07-10T08:21:34.000Z</time>
      </trkpt>
      <trkpt lat="44.91333" lon="0.98138">
        <ele>241</ele>
        <time>2021-07-10T08:21:44.000Z</time>
      </trkpt>
      <trkpt lat="44.91333" lon="0.98151">
        <ele>240</ele>
        <time>2021-07-10T08:21:56.000Z</time>
      </trkpt>
      <trkpt lat="44.91333" lon="0.98165">
        <ele>241</ele>
        <time>2021-07-10T08:22:06.000Z</time>
      </trkpt>
      <trkpt lat="44.9133" lon="0.98178">
        <ele>243</ele>
        <time>2021-07-10T08:22:14.000Z</time>
      </trkpt>
      <trkpt lat="44.91328" lon="0.98192">
        <ele>243</ele>
        <time>2021-07-10T08:22:21.000Z</time>
      </trkpt>
      <trkpt lat="44.91323" lon="0.98203">
        <ele>242</ele>
        <time>2021-07-10T08:22:33.000Z</time>
      </trkpt>
      <trkpt lat="44.91316" lon="0.98209">
        <ele>241</ele>
        <time>2021-07-10T08:22:40.000Z</time>
      </trkpt>
      <trkpt lat="44.91308" lon="0.98216">
        <ele>241</ele>
        <time>2021-07-10T08:22:51.000Z</time>
      </trkpt>
      <trkpt lat="44.91298" lon="0.9822">
        <ele>239</ele>
        <time>2021-07-10T08:22:59.000Z</time>
      </trkpt>
      <trkpt lat="44.9129" lon="0.98228">
        <ele>240</ele>
        <time>2021-07-10T08:23:07.000Z</time>
      </trkpt>
      <trkpt lat="44.91281" lon="0.98232">
        <ele>241</ele>
        <time>2021-07-10T08:23:16.000Z</time>
      </trkpt>
      <trkpt lat="44.91274" lon="0.98242">
        <ele>244</ele>
        <time>2021-07-10T08:23:24.000Z</time>
      </trkpt>
      <trkpt lat="44.91265" lon="0.98247">
        <ele>245</ele>
        <time>2021-07-10T08:23:32.000Z</time>
      </trkpt>
      <trkpt lat="44.91256" lon="0.98251">
        <ele>243</ele>
        <time>2021-07-10T08:23:44.000Z</time>
      </trkpt>
      <trkpt lat="44.91247" lon="0.98256">
        <ele>244</ele>
        <time>2021-07-10T08:23:54.000Z</time>
      </trkpt>
      <trkpt lat="44.91239" lon="0.98262">
        <ele>243</ele>
        <time>2021-07-10T08:24:02.000Z</time>
      </trkpt>
      <trkpt lat="44.9123" lon="0.98265">
        <ele>243</ele>
        <time>2021-07-10T08:24:11.000Z</time>
      </trkpt>
      <trkpt lat="44.9122" lon="0.98266">
        <ele>245</ele>
        <time>2021-07-10T08:24:23.000Z</time>
      </trkpt>
      <trkpt lat="44.9121" lon="0.98268">
        <ele>246</ele>
        <time>2021-07-10T08:24:32.000Z</time>
      </trkpt>
      <trkpt lat="44.91201" lon="0.98268">
        <ele>246</ele>
        <time>2021-07-10T08:24:42.000Z</time>
      </trkpt>
      <trkpt lat="44.91192" lon="0.98272">
        <ele>245</ele>
        <time>2021-07-10T08:24:52.000Z</time>
      </trkpt>
      <trkpt lat="44.91183" lon="0.98274">
        <ele>247</ele>
        <time>2021-07-10T08:25:01.000Z</time>
      </trkpt>
      <trkpt lat="44.91173" lon="0.98277">
        <ele>249</ele>
        <time>2021-07-10T08:25:12.000Z</time>
      </trkpt>
      <trkpt lat="44.91164" lon="0.98278">
        <ele>251</ele>
        <time>2021-07-10T08:25:19.000Z</time>
      </trkpt>
      <trkpt lat="44.91154" lon="0.98281">
        <ele>248</ele>
        <time>2021-07-10T08:25:28.000Z</time>
      </trkpt>
      <trkpt lat="44.91148" lon="0.9827">
        <ele>251</ele>
        <time>2021-07-10T08:25:53.000Z</time>
      </trkpt>
      <trkpt lat="44.91144" lon="0.98258">
        <ele>253</ele>
        <time>2021-07-10T08:26:04.000Z</time>
      </trkpt>
      <trkpt lat="44.91137" lon="0.98248">
        <ele>252</ele>
        <time>2021-07-10T08:26:10.000Z</time>
      </trkpt>
      <trkpt lat="44.91137" lon="0.98234">
        <ele>253</ele>
        <time>2021-07-10T08:26:20.000Z</time>
      </trkpt>
      <trkpt lat="44.91139" lon="0.98221">
        <ele>256</ele>
        <time>2021-07-10T08:27:11.000Z</time>
      </trkpt>
      <trkpt lat="44.91144" lon="0.9821">
        <ele>256</ele>
        <time>2021-07-10T08:27:25.000Z</time>
      </trkpt>
      <trkpt lat="44.91138" lon="0.982">
        <ele>257</ele>
        <time>2021-07-10T08:28:06.000Z</time>
      </trkpt>
      <trkpt lat="44.91129" lon="0.98203">
        <ele>258</ele>
        <time>2021-07-10T08:29:26.000Z</time>
      </trkpt>
      <trkpt lat="44.9112" lon="0.98206">
        <ele>255</ele>
        <time>2021-07-10T08:45:43.000Z</time>
      </trkpt>
      <trkpt lat="44.91112" lon="0.98199">
        <ele>255</ele>
        <time>2021-07-10T08:45:55.000Z</time>
      </trkpt>
      <trkpt lat="44.91103" lon="0.98194">
        <ele>254</ele>
        <time>2021-07-10T08:46:04.000Z</time>
      </trkpt>
      <trkpt lat="44.91095" lon="0.98185">
        <ele>253</ele>
        <time>2021-07-10T08:46:16.000Z</time>
      </trkpt>
      <trkpt lat="44.91088" lon="0.98178">
        <ele>252</ele>
        <time>2021-07-10T08:46:23.000Z</time>
      </trkpt>
      <trkpt lat="44.91081" lon="0.98169">
        <ele>253</ele>
        <time>2021-07-10T08:46:32.000Z</time>
      </trkpt>
      <trkpt lat="44.91074" lon="0.98162">
        <ele>251</ele>
        <time>2021-07-10T08:46:42.000Z</time>
      </trkpt>
      <trkpt lat="44.91065" lon="0.98154">
        <ele>252</ele>
        <time>2021-07-10T08:46:52.000Z</time>
      </trkpt>
      <trkpt lat="44.91058" lon="0.98146">
        <ele>252</ele>
        <time>2021-07-10T08:47:00.000Z</time>
      </trkpt>
      <trkpt lat="44.9105" lon="0.98138">
        <ele>252</ele>
        <time>2021-07-10T08:47:11.000Z</time>
      </trkpt>
      <trkpt lat="44.91042" lon="0.98131">
        <ele>251</ele>
        <time>2021-07-10T08:47:18.000Z</time>
      </trkpt>
      <trkpt lat="44.91033" lon="0.98124">
        <ele>251</ele>
        <time>2021-07-10T08:47:26.000Z</time>
      </trkpt>
      <trkpt lat="44.91024" lon="0.98118">
        <ele>252</ele>
        <time>2021-07-10T08:47:34.000Z</time>
      </trkpt>
      <trkpt lat="44.91017" lon="0.98109">
        <ele>253</ele>
        <time>2021-07-10T08:47:41.000Z</time>
      </trkpt>
      <trkpt lat="44.9101" lon="0.98101">
        <ele>254</ele>
        <time>2021-07-10T08:47:49.000Z</time>
      </trkpt>
      <trkpt lat="44.91002" lon="0.98092">
        <ele>253</ele>
        <time>2021-07-10T08:48:01.000Z</time>
      </trkpt>
      <trkpt lat="44.90994" lon="0.98085">
        <ele>250</ele>
        <time>2021-07-10T08:48:09.000Z</time>
      </trkpt>
      <trkpt lat="44.90988" lon="0.98075">
        <ele>250</ele>
        <time>2021-07-10T08:48:18.000Z</time>
      </trkpt>
      <trkpt lat="44.90981" lon="0.98065">
        <ele>250</ele>
        <time>2021-07-10T08:48:27.000Z</time>
      </trkpt>
      <trkpt lat="44.90973" lon="0.98057">
        <ele>251</ele>
        <time>2021-07-10T08:48:35.000Z</time>
      </trkpt>
      <trkpt lat="44.90967" lon="0.98047">
        <ele>250</ele>
        <time>2021-07-10T08:48:43.000Z</time>
      </trkpt>
      <trkpt lat="44.90961" lon="0.98035">
        <ele>248</ele>
        <time>2021-07-10T08:48:52.000Z</time>
      </trkpt>
      <trkpt lat="44.90959" lon="0.98021">
        <ele>246</ele>
        <time>2021-07-10T08:48:58.000Z</time>
      </trkpt>
      <trkpt lat="44.90959" lon="0.98007">
        <ele>247</ele>
        <time>2021-07-10T08:49:09.000Z</time>
      </trkpt>
      <trkpt lat="44.90961" lon="0.97993">
        <ele>247</ele>
        <time>2021-07-10T08:49:17.000Z</time>
      </trkpt>
      <trkpt lat="44.90965" lon="0.9798">
        <ele>246</ele>
        <time>2021-07-10T08:49:24.000Z</time>
      </trkpt>
      <trkpt lat="44.9097" lon="0.97968">
        <ele>244</ele>
        <time>2021-07-10T08:49:30.000Z</time>
      </trkpt>
      <trkpt lat="44.90973" lon="0.97956">
        <ele>243</ele>
        <time>2021-07-10T08:49:35.000Z</time>
      </trkpt>
      <trkpt lat="44.90972" lon="0.97943">
        <ele>242</ele>
        <time>2021-07-10T08:49:41.000Z</time>
      </trkpt>
      <trkpt lat="44.9097" lon="0.97929">
        <ele>242</ele>
        <time>2021-07-10T08:49:49.000Z</time>
      </trkpt>
      <trkpt lat="44.90968" lon="0.97916">
        <ele>240</ele>
        <time>2021-07-10T08:49:55.000Z</time>
      </trkpt>
      <trkpt lat="44.90965" lon="0.97902">
        <ele>240</ele>
        <time>2021-07-10T08:50:05.000Z</time>
      </trkpt>
      <trkpt lat="44.90964" lon="0.97888">
        <ele>240</ele>
        <time>2021-07-10T08:50:12.000Z</time>
      </trkpt>
      <trkpt lat="44.90966" lon="0.97873">
        <ele>238</ele>
        <time>2021-07-10T08:50:20.000Z</time>
      </trkpt>
      <trkpt lat="44.90968" lon="0.97859">
        <ele>238</ele>
        <time>2021-07-10T08:50:27.000Z</time>
      </trkpt>
      <trkpt lat="44.90974" lon="0.97848">
        <ele>238</ele>
        <time>2021-07-10T08:50:33.000Z</time>
      </trkpt>
      <trkpt lat="44.9098" lon="0.97838">
        <ele>236</ele>
        <time>2021-07-10T08:50:39.000Z</time>
      </trkpt>
      <trkpt lat="44.90988" lon="0.97831">
        <ele>236</ele>
        <time>2021-07-10T08:50:45.000Z</time>
      </trkpt>
      <trkpt lat="44.90996" lon="0.97826">
        <ele>237</ele>
        <time>2021-07-10T08:50:53.000Z</time>
      </trkpt>
      <trkpt lat="44.91001" lon="0.97814">
        <ele>237</ele>
        <time>2021-07-10T08:51:00.000Z</time>
      </trkpt>
      <trkpt lat="44.91001" lon="0.97801">
        <ele>237</ele>
        <time>2021-07-10T08:51:07.000Z</time>
      </trkpt>
      <trkpt lat="44.91003" lon="0.97785">
        <ele>238</ele>
        <time>2021-07-10T08:51:17.000Z</time>
      </trkpt>
      <trkpt lat="44.91005" lon="0.9777">
        <ele>237</ele>
        <time>2021-07-10T08:51:23.000Z</time>
      </trkpt>
      <trkpt lat="44.91006" lon="0.97756">
        <ele>238</ele>
        <time>2021-07-10T08:51:29.000Z</time>
      </trkpt>
      <trkpt lat="44.91009" lon="0.97742">
        <ele>238</ele>
        <time>2021-07-10T08:51:35.000Z</time>
      </trkpt>
      <trkpt lat="44.91012" lon="0.97728">
        <ele>238</ele>
        <time>2021-07-10T08:51:42.000Z</time>
      </trkpt>
      <trkpt lat="44.91015" lon="0.97716">
        <ele>237</ele>
        <time>2021-07-10T08:51:49.000Z</time>
      </trkpt>
      <trkpt lat="44.91017" lon="0.97703">
        <ele>238</ele>
        <time>2021-07-10T08:51:56.000Z</time>
      </trkpt>
      <trkpt lat="44.9102" lon="0.97691">
        <ele>239</ele>
        <time>2021-07-10T08:52:03.000Z</time>
      </trkpt>
      <trkpt lat="44.91018" lon="0.97678">
        <ele>238</ele>
        <time>2021-07-10T08:52:10.000Z</time>
      </trkpt>
      <trkpt lat="44.91019" lon="0.97664">
        <ele>239</ele>
        <time>2021-07-10T08:52:30.000Z</time>
      </trkpt>
      <trkpt lat="44.91027" lon="0.97655">
        <ele>239</ele>
        <time>2021-07-10T08:52:39.000Z</time>
      </trkpt>
      <trkpt lat="44.91035" lon="0.97647">
        <ele>238</ele>
        <time>2021-07-10T08:52:46.000Z</time>
      </trkpt>
      <trkpt lat="44.91044" lon="0.97639">
        <ele>238</ele>
        <time>2021-07-10T08:52:53.000Z</time>
      </trkpt>
      <trkpt lat="44.91052" lon="0.97632">
        <ele>238</ele>
        <time>2021-07-10T08:53:00.000Z</time>
      </trkpt>
      <trkpt lat="44.91059" lon="0.97622">
        <ele>237</ele>
        <time>2021-07-10T08:53:08.000Z</time>
      </trkpt>
      <trkpt lat="44.91067" lon="0.97616">
        <ele>237</ele>
        <time>2021-07-10T08:53:15.000Z</time>
      </trkpt>
      <trkpt lat="44.91075" lon="0.97611">
        <ele>236</ele>
        <time>2021-07-10T08:53:22.000Z</time>
      </trkpt>
      <trkpt lat="44.91085" lon="0.97606">
        <ele>236</ele>
        <time>2021-07-10T08:53:30.000Z</time>
      </trkpt>
      <trkpt lat="44.91094" lon="0.97602">
        <ele>235</ele>
        <time>2021-07-10T08:53:37.000Z</time>
      </trkpt>
      <trkpt lat="44.91104" lon="0.97602">
        <ele>236</ele>
        <time>2021-07-10T08:53:44.000Z</time>
      </trkpt>
      <trkpt lat="44.91114" lon="0.97599">
        <ele>236</ele>
        <time>2021-07-10T08:53:50.000Z</time>
      </trkpt>
      <trkpt lat="44.91123" lon="0.976">
        <ele>236</ele>
        <time>2021-07-10T08:53:57.000Z</time>
      </trkpt>
      <trkpt lat="44.91133" lon="0.97596">
        <ele>236</ele>
        <time>2021-07-10T08:54:04.000Z</time>
      </trkpt>
      <trkpt lat="44.91142" lon="0.97589">
        <ele>236</ele>
        <time>2021-07-10T08:54:11.000Z</time>
      </trkpt>
      <trkpt lat="44.91149" lon="0.97581">
        <ele>236</ele>
        <time>2021-07-10T08:54:17.000Z</time>
      </trkpt>
      <trkpt lat="44.91157" lon="0.97573">
        <ele>236</ele>
        <time>2021-07-10T08:54:24.000Z</time>
      </trkpt>
      <trkpt lat="44.91164" lon="0.97565">
        <ele>236</ele>
        <time>2021-07-10T08:54:30.000Z</time>
      </trkpt>
      <trkpt lat="44.9117" lon="0.97556">
        <ele>238</ele>
        <time>2021-07-10T08:54:40.000Z</time>
      </trkpt>
      <trkpt lat="44.9118" lon="0.97553">
        <ele>237</ele>
        <time>2021-07-10T08:54:48.000Z</time>
      </trkpt>
      <trkpt lat="44.91189" lon="0.97548">
        <ele>237</ele>
        <time>2021-07-10T08:54:58.000Z</time>
      </trkpt>
      <trkpt lat="44.91196" lon="0.97539">
        <ele>237</ele>
        <time>2021-07-10T08:55:05.000Z</time>
      </trkpt>
      <trkpt lat="44.91204" lon="0.9753">
        <ele>237</ele>
        <time>2021-07-10T08:55:16.000Z</time>
      </trkpt>
      <trkpt lat="44.91213" lon="0.97526">
        <ele>237</ele>
        <time>2021-07-10T08:55:21.000Z</time>
      </trkpt>
      <trkpt lat="44.9122" lon="0.97516">
        <ele>235</ele>
        <time>2021-07-10T08:55:38.000Z</time>
      </trkpt>
      <trkpt lat="44.91216" lon="0.97504">
        <ele>237</ele>
        <time>2021-07-10T08:55:48.000Z</time>
      </trkpt>
      <trkpt lat="44.91209" lon="0.97496">
        <ele>240</ele>
        <time>2021-07-10T08:56:01.000Z</time>
      </trkpt>
      <trkpt lat="44.912" lon="0.9749">
        <ele>241</ele>
        <time>2021-07-10T08:56:11.000Z</time>
      </trkpt>
      <trkpt lat="44.91192" lon="0.97482">
        <ele>242</ele>
        <time>2021-07-10T08:56:19.000Z</time>
      </trkpt>
      <trkpt lat="44.91189" lon="0.9747">
        <ele>241</ele>
        <time>2021-07-10T08:56:26.000Z</time>
      </trkpt>
      <trkpt lat="44.91191" lon="0.97457">
        <ele>241</ele>
        <time>2021-07-10T08:56:37.000Z</time>
      </trkpt>
      <trkpt lat="44.91182" lon="0.9746">
        <ele>247</ele>
        <time>2021-07-10T09:04:12.000Z</time>
      </trkpt>
      <trkpt lat="44.91173" lon="0.97462">
        <ele>247</ele>
        <time>2021-07-10T09:04:25.000Z</time>
      </trkpt>
      <trkpt lat="44.91162" lon="0.97464">
        <ele>247</ele>
        <time>2021-07-10T09:04:33.000Z</time>
      </trkpt>
      <trkpt lat="44.91153" lon="0.97465">
        <ele>247</ele>
        <time>2021-07-10T09:04:40.000Z</time>
      </trkpt>
      <trkpt lat="44.91145" lon="0.97458">
        <ele>246</ele>
        <time>2021-07-10T09:04:50.000Z</time>
      </trkpt>
      <trkpt lat="44.91135" lon="0.97457">
        <ele>244</ele>
        <time>2021-07-10T09:05:03.000Z</time>
      </trkpt>
      <trkpt lat="44.91125" lon="0.97459">
        <ele>243</ele>
        <time>2021-07-10T09:05:12.000Z</time>
      </trkpt>
      <trkpt lat="44.91116" lon="0.97459">
        <ele>243</ele>
        <time>2021-07-10T09:05:20.000Z</time>
      </trkpt>
      <trkpt lat="44.91105" lon="0.9746">
        <ele>242</ele>
        <time>2021-07-10T09:05:29.000Z</time>
      </trkpt>
      <trkpt lat="44.91098" lon="0.97467">
        <ele>240</ele>
        <time>2021-07-10T09:05:40.000Z</time>
      </trkpt>
      <trkpt lat="44.91089" lon="0.97465">
        <ele>239</ele>
        <time>2021-07-10T09:05:48.000Z</time>
      </trkpt>
      <trkpt lat="44.91077" lon="0.9746">
        <ele>238</ele>
        <time>2021-07-10T09:06:02.000Z</time>
      </trkpt>
      <trkpt lat="44.91069" lon="0.97454">
        <ele>237</ele>
        <time>2021-07-10T09:06:17.000Z</time>
      </trkpt>
      <trkpt lat="44.9106" lon="0.9745">
        <ele>235</ele>
        <time>2021-07-10T09:06:28.000Z</time>
      </trkpt>
      <trkpt lat="44.91051" lon="0.97444">
        <ele>236</ele>
        <time>2021-07-10T09:06:36.000Z</time>
      </trkpt>
      <trkpt lat="44.91042" lon="0.97442">
        <ele>237</ele>
        <time>2021-07-10T09:06:46.000Z</time>
      </trkpt>
      <trkpt lat="44.91032" lon="0.97438">
        <ele>239</ele>
        <time>2021-07-10T09:06:57.000Z</time>
      </trkpt>
      <trkpt lat="44.91024" lon="0.97432">
        <ele>234</ele>
        <time>2021-07-10T09:07:08.000Z</time>
      </trkpt>
      <trkpt lat="44.91018" lon="0.97422">
        <ele>233</ele>
        <time>2021-07-10T09:07:25.000Z</time>
      </trkpt>
      <trkpt lat="44.91017" lon="0.97409">
        <ele>228</ele>
        <time>2021-07-10T09:07:36.000Z</time>
      </trkpt>
      <trkpt lat="44.91022" lon="0.97398">
        <ele>224</ele>
        <time>2021-07-10T09:08:28.000Z</time>
      </trkpt>
      <trkpt lat="44.9103" lon="0.97391">
        <ele>224</ele>
        <time>2021-07-10T09:08:37.000Z</time>
      </trkpt>
      <trkpt lat="44.91037" lon="0.97382">
        <ele>224</ele>
        <time>2021-07-10T09:08:45.000Z</time>
      </trkpt>
      <trkpt lat="44.91045" lon="0.97375">
        <ele>225</ele>
        <time>2021-07-10T09:08:53.000Z</time>
      </trkpt>
      <trkpt lat="44.91054" lon="0.97369">
        <ele>224</ele>
        <time>2021-07-10T09:09:01.000Z</time>
      </trkpt>
      <trkpt lat="44.91063" lon="0.9737">
        <ele>224</ele>
        <time>2021-07-10T09:09:08.000Z</time>
      </trkpt>
      <trkpt lat="44.91072" lon="0.97375">
        <ele>224</ele>
        <time>2021-07-10T09:09:15.000Z</time>
      </trkpt>
      <trkpt lat="44.9108" lon="0.97381">
        <ele>222</ele>
        <time>2021-07-10T09:09:22.000Z</time>
      </trkpt>
      <trkpt lat="44.9109" lon="0.97385">
        <ele>221</ele>
        <time>2021-07-10T09:09:30.000Z</time>
      </trkpt>
      <trkpt lat="44.91099" lon="0.97386">
        <ele>220</ele>
        <time>2021-07-10T09:09:42.000Z</time>
      </trkpt>
      <trkpt lat="44.91109" lon="0.97386">
        <ele>220</ele>
        <time>2021-07-10T09:09:50.000Z</time>
      </trkpt>
      <trkpt lat="44.91119" lon="0.97388">
        <ele>218</ele>
        <time>2021-07-10T09:10:07.000Z</time>
      </trkpt>
      <trkpt lat="44.91128" lon="0.97385">
        <ele>218</ele>
        <time>2021-07-10T09:10:16.000Z</time>
      </trkpt>
      <trkpt lat="44.91138" lon="0.97383">
        <ele>219</ele>
        <time>2021-07-10T09:10:26.000Z</time>
      </trkpt>
      <trkpt lat="44.91147" lon="0.97384">
        <ele>219</ele>
        <time>2021-07-10T09:10:37.000Z</time>
      </trkpt>
      <trkpt lat="44.91157" lon="0.97387">
        <ele>216</ele>
        <time>2021-07-10T09:10:47.000Z</time>
      </trkpt>
      <trkpt lat="44.91166" lon="0.97387">
        <ele>217</ele>
        <time>2021-07-10T09:10:55.000Z</time>
      </trkpt>
      <trkpt lat="44.91177" lon="0.97387">
        <ele>216</ele>
        <time>2021-07-10T09:11:07.000Z</time>
      </trkpt>
      <trkpt lat="44.91186" lon="0.97381">
        <ele>216</ele>
        <time>2021-07-10T09:11:16.000Z</time>
      </trkpt>
      <trkpt lat="44.91177" lon="0.97376">
        <ele>213</ele>
        <time>2021-07-10T09:12:12.000Z</time>
      </trkpt>
      <trkpt lat="44.91167" lon="0.97371">
        <ele>212</ele>
        <time>2021-07-10T09:12:21.000Z</time>
      </trkpt>
      <trkpt lat="44.91158" lon="0.97368">
        <ele>213</ele>
        <time>2021-07-10T09:12:31.000Z</time>
      </trkpt>
      <trkpt lat="44.91148" lon="0.97371">
        <ele>213</ele>
        <time>2021-07-10T09:12:41.000Z</time>
      </trkpt>
      <trkpt lat="44.91139" lon="0.97367">
        <ele>212</ele>
        <time>2021-07-10T09:12:48.000Z</time>
      </trkpt>
      <trkpt lat="44.91134" lon="0.97356">
        <ele>209</ele>
        <time>2021-07-10T09:13:07.000Z</time>
      </trkpt>
      <trkpt lat="44.91127" lon="0.97346">
        <ele>209</ele>
        <time>2021-07-10T09:13:22.000Z</time>
      </trkpt>
      <trkpt lat="44.91122" lon="0.97336">
        <ele>206</ele>
        <time>2021-07-10T09:13:33.000Z</time>
      </trkpt>
      <trkpt lat="44.91116" lon="0.97326">
        <ele>204</ele>
        <time>2021-07-10T09:13:43.000Z</time>
      </trkpt>
      <trkpt lat="44.91108" lon="0.97319">
        <ele>203</ele>
        <time>2021-07-10T09:13:52.000Z</time>
      </trkpt>
      <trkpt lat="44.91106" lon="0.97306">
        <ele>201</ele>
        <time>2021-07-10T09:14:01.000Z</time>
      </trkpt>
      <trkpt lat="44.91102" lon="0.97293">
        <ele>198</ele>
        <time>2021-07-10T09:14:12.000Z</time>
      </trkpt>
      <trkpt lat="44.91091" lon="0.97291">
        <ele>199</ele>
        <time>2021-07-10T09:14:23.000Z</time>
      </trkpt>
      <trkpt lat="44.91083" lon="0.97285">
        <ele>197</ele>
        <time>2021-07-10T09:14:32.000Z</time>
      </trkpt>
      <trkpt lat="44.91075" lon="0.97277">
        <ele>195</ele>
        <time>2021-07-10T09:14:43.000Z</time>
      </trkpt>
      <trkpt lat="44.91069" lon="0.97268">
        <ele>192</ele>
        <time>2021-07-10T09:15:04.000Z</time>
      </trkpt>
      <trkpt lat="44.91061" lon="0.9726">
        <ele>191</ele>
        <time>2021-07-10T09:15:32.000Z</time>
      </trkpt>
      <trkpt lat="44.91053" lon="0.97252">
        <ele>194</ele>
        <time>2021-07-10T09:16:47.000Z</time>
      </trkpt>
      <trkpt lat="44.91048" lon="0.97239">
        <ele>194</ele>
        <time>2021-07-10T09:17:10.000Z</time>
      </trkpt>
      <trkpt lat="44.91041" lon="0.9723">
        <ele>196</ele>
        <time>2021-07-10T09:17:39.000Z</time>
      </trkpt>
      <trkpt lat="44.91041" lon="0.97217">
        <ele>196</ele>
        <time>2021-07-10T09:17:48.000Z</time>
      </trkpt>
      <trkpt lat="44.9104" lon="0.97204">
        <ele>194</ele>
        <time>2021-07-10T09:17:55.000Z</time>
      </trkpt>
      <trkpt lat="44.91039" lon="0.97191">
        <ele>194</ele>
        <time>2021-07-10T09:18:05.000Z</time>
      </trkpt>
      <trkpt lat="44.91033" lon="0.97181">
        <ele>192</ele>
        <time>2021-07-10T09:18:15.000Z</time>
      </trkpt>
      <trkpt lat="44.91028" lon="0.9717">
        <ele>192</ele>
        <time>2021-07-10T09:18:24.000Z</time>
      </trkpt>
      <trkpt lat="44.91023" lon="0.97159">
        <ele>193</ele>
        <time>2021-07-10T09:18:32.000Z</time>
      </trkpt>
      <trkpt lat="44.91016" lon="0.9715">
        <ele>191</ele>
        <time>2021-07-10T09:18:40.000Z</time>
      </trkpt>
      <trkpt lat="44.91011" lon="0.9714">
        <ele>189</ele>
        <time>2021-07-10T09:18:50.000Z</time>
      </trkpt>
      <trkpt lat="44.91003" lon="0.97132">
        <ele>188</ele>
        <time>2021-07-10T09:19:03.000Z</time>
      </trkpt>
      <trkpt lat="44.90995" lon="0.97125">
        <ele>189</ele>
        <time>2021-07-10T09:19:11.000Z</time>
      </trkpt>
      <trkpt lat="44.90989" lon="0.97114">
        <ele>188</ele>
        <time>2021-07-10T09:19:19.000Z</time>
      </trkpt>
      <trkpt lat="44.90987" lon="0.97101">
        <ele>187</ele>
        <time>2021-07-10T09:19:31.000Z</time>
      </trkpt>
      <trkpt lat="44.90979" lon="0.97095">
        <ele>188</ele>
        <time>2021-07-10T09:19:42.000Z</time>
      </trkpt>
      <trkpt lat="44.90971" lon="0.97088">
        <ele>186</ele>
        <time>2021-07-10T09:19:54.000Z</time>
      </trkpt>
      <trkpt lat="44.90963" lon="0.97081">
        <ele>185</ele>
        <time>2021-07-10T09:20:03.000Z</time>
      </trkpt>
      <trkpt lat="44.90953" lon="0.97082">
        <ele>188</ele>
        <time>2021-07-10T09:20:12.000Z</time>
      </trkpt>
      <trkpt lat="44.90945" lon="0.97076">
        <ele>188</ele>
        <time>2021-07-10T09:20:20.000Z</time>
      </trkpt>
      <trkpt lat="44.90937" lon="0.9707">
        <ele>185</ele>
        <time>2021-07-10T09:20:29.000Z</time>
      </trkpt>
      <trkpt lat="44.90928" lon="0.97067">
        <ele>183</ele>
        <time>2021-07-10T09:20:37.000Z</time>
      </trkpt>
      <trkpt lat="44.90918" lon="0.97067">
        <ele>181</ele>
        <time>2021-07-10T09:20:47.000Z</time>
      </trkpt>
      <trkpt lat="44.90912" lon="0.97058">
        <ele>178</ele>
        <time>2021-07-10T09:20:56.000Z</time>
      </trkpt>
      <trkpt lat="44.90904" lon="0.97065">
        <ele>177</ele>
        <time>2021-07-10T09:21:15.000Z</time>
      </trkpt>
      <trkpt lat="44.90896" lon="0.97071">
        <ele>177</ele>
        <time>2021-07-10T09:21:25.000Z</time>
      </trkpt>
      <trkpt lat="44.90888" lon="0.97078">
        <ele>176</ele>
        <time>2021-07-10T09:21:32.000Z</time>
      </trkpt>
      <trkpt lat="44.90894" lon="0.97089">
        <ele>179</ele>
        <time>2021-07-10T09:22:02.000Z</time>
      </trkpt>
      <trkpt lat="44.90899" lon="0.97101">
        <ele>182</ele>
        <time>2021-07-10T09:22:12.000Z</time>
      </trkpt>
      <trkpt lat="44.90899" lon="0.97114">
        <ele>187</ele>
        <time>2021-07-10T09:22:26.000Z</time>
      </trkpt>
      <trkpt lat="44.90898" lon="0.97127">
        <ele>193</ele>
        <time>2021-07-10T09:22:38.000Z</time>
      </trkpt>
      <trkpt lat="44.90903" lon="0.97138">
        <ele>198</ele>
        <time>2021-07-10T09:22:53.000Z</time>
      </trkpt>
      <trkpt lat="44.90913" lon="0.97137">
        <ele>201</ele>
        <time>2021-07-10T09:24:25.000Z</time>
      </trkpt>
      <trkpt lat="44.90919" lon="0.97147">
        <ele>203</ele>
        <time>2021-07-10T09:24:38.000Z</time>
      </trkpt>
      <trkpt lat="44.9091" lon="0.97152">
        <ele>206</ele>
        <time>2021-07-10T09:25:52.000Z</time>
      </trkpt>
      <trkpt lat="44.90903" lon="0.9716">
        <ele>210</ele>
        <time>2021-07-10T09:30:15.000Z</time>
      </trkpt>
      <trkpt lat="44.90894" lon="0.97154">
        <ele>215</ele>
        <time>2021-07-10T09:39:05.000Z</time>
      </trkpt>
      <trkpt lat="44.90902" lon="0.9716">
        <ele>213</ele>
        <time>2021-07-10T09:43:07.000Z</time>
      </trkpt>
      <trkpt lat="44.90899" lon="0.97172">
        <ele>211</ele>
        <time>2021-07-10T09:45:38.000Z</time>
      </trkpt>
      <trkpt lat="44.90902" lon="0.97185">
        <ele>208</ele>
        <time>2021-07-10T09:45:52.000Z</time>
      </trkpt>
      <trkpt lat="44.90899" lon="0.97197">
        <ele>209</ele>
        <time>2021-07-10T09:46:15.000Z</time>
      </trkpt>
      <trkpt lat="44.90891" lon="0.97205">
        <ele>208</ele>
        <time>2021-07-10T09:46:43.000Z</time>
      </trkpt>
      <trkpt lat="44.90882" lon="0.9721">
        <ele>208</ele>
        <time>2021-07-10T09:47:32.000Z</time>
      </trkpt>
      <trkpt lat="44.9088" lon="0.97224">
        <ele>209</ele>
        <time>2021-07-10T09:47:45.000Z</time>
      </trkpt>
      <trkpt lat="44.90876" lon="0.97237">
        <ele>213</ele>
        <time>2021-07-10T09:47:57.000Z</time>
      </trkpt>
      <trkpt lat="44.90872" lon="0.97249">
        <ele>211</ele>
        <time>2021-07-10T09:48:10.000Z</time>
      </trkpt>
      <trkpt lat="44.9087" lon="0.97261">
        <ele>212</ele>
        <time>2021-07-10T09:49:30.000Z</time>
      </trkpt>
      <trkpt lat="44.90869" lon="0.97275">
        <ele>214</ele>
        <time>2021-07-10T09:49:45.000Z</time>
      </trkpt>
      <trkpt lat="44.90862" lon="0.97285">
        <ele>211</ele>
        <time>2021-07-10T09:50:00.000Z</time>
      </trkpt>
      <trkpt lat="44.90853" lon="0.9729">
        <ele>213</ele>
        <time>2021-07-10T09:50:55.000Z</time>
      </trkpt>
      <trkpt lat="44.90845" lon="0.97277">
        <ele>207</ele>
        <time>2021-07-10T09:52:07.000Z</time>
      </trkpt>
      <trkpt lat="44.9084" lon="0.97267">
        <ele>207</ele>
        <time>2021-07-10T09:52:23.000Z</time>
      </trkpt>
      <trkpt lat="44.9083" lon="0.97267">
        <ele>197</ele>
        <time>2021-07-10T09:53:38.000Z</time>
      </trkpt>
      <trkpt lat="44.90823" lon="0.9726">
        <ele>192</ele>
        <time>2021-07-10T09:54:24.000Z</time>
      </trkpt>
      <trkpt lat="44.9082" lon="0.97273">
        <ele>190</ele>
        <time>2021-07-10T09:55:36.000Z</time>
      </trkpt>
      <trkpt lat="44.90813" lon="0.9728">
        <ele>189</ele>
        <time>2021-07-10T09:55:58.000Z</time>
      </trkpt>
      <trkpt lat="44.90804" lon="0.97277">
        <ele>183</ele>
        <time>2021-07-10T09:56:22.000Z</time>
      </trkpt>
      <trkpt lat="44.90797" lon="0.97268">
        <ele>180</ele>
        <time>2021-07-10T09:56:40.000Z</time>
      </trkpt>
      <trkpt lat="44.90794" lon="0.97281">
        <ele>176</ele>
        <time>2021-07-10T09:57:31.000Z</time>
      </trkpt>
      <trkpt lat="44.90795" lon="0.97293">
        <ele>177</ele>
        <time>2021-07-10T09:57:39.000Z</time>
      </trkpt>
      <trkpt lat="44.90789" lon="0.97303">
        <ele>178</ele>
        <time>2021-07-10T09:57:47.000Z</time>
      </trkpt>
      <trkpt lat="44.90787" lon="0.97317">
        <ele>179</ele>
        <time>2021-07-10T09:58:05.000Z</time>
      </trkpt>
      <trkpt lat="44.90785" lon="0.97304">
        <ele>181</ele>
        <time>2021-07-10T09:58:36.000Z</time>
      </trkpt>
      <trkpt lat="44.90788" lon="0.97291">
        <ele>179</ele>
        <time>2021-07-10T09:58:44.000Z</time>
      </trkpt>
      <trkpt lat="44.90789" lon="0.97278">
        <ele>180</ele>
        <time>2021-07-10T09:58:54.000Z</time>
      </trkpt>
      <trkpt lat="44.90793" lon="0.97267">
        <ele>181</ele>
        <time>2021-07-10T09:59:02.000Z</time>
      </trkpt>
      <trkpt lat="44.90799" lon="0.97256">
        <ele>183</ele>
        <time>2021-07-10T09:59:11.000Z</time>
      </trkpt>
      <trkpt lat="44.90802" lon="0.97244">
        <ele>182</ele>
        <time>2021-07-10T09:59:20.000Z</time>
      </trkpt>
      <trkpt lat="44.90805" lon="0.9723">
        <ele>180</ele>
        <time>2021-07-10T09:59:27.000Z</time>
      </trkpt>
      <trkpt lat="44.90812" lon="0.9722">
        <ele>182</ele>
        <time>2021-07-10T09:59:36.000Z</time>
      </trkpt>
      <trkpt lat="44.90817" lon="0.97209">
        <ele>182</ele>
        <time>2021-07-10T09:59:45.000Z</time>
      </trkpt>
      <trkpt lat="44.90824" lon="0.972">
        <ele>179</ele>
        <time>2021-07-10T10:00:11.000Z</time>
      </trkpt>
      <trkpt lat="44.90828" lon="0.97187">
        <ele>180</ele>
        <time>2021-07-10T10:00:21.000Z</time>
      </trkpt>
      <trkpt lat="44.9083" lon="0.97174">
        <ele>181</ele>
        <time>2021-07-10T10:00:32.000Z</time>
      </trkpt>
      <trkpt lat="44.90836" lon="0.97162">
        <ele>180</ele>
        <time>2021-07-10T10:00:40.000Z</time>
      </trkpt>
      <trkpt lat="44.90839" lon="0.9715">
        <ele>180</ele>
        <time>2021-07-10T10:00:50.000Z</time>
      </trkpt>
      <trkpt lat="44.90845" lon="0.97139">
        <ele>180</ele>
        <time>2021-07-10T10:00:58.000Z</time>
      </trkpt>
      <trkpt lat="44.9085" lon="0.97127">
        <ele>179</ele>
        <time>2021-07-10T10:01:05.000Z</time>
      </trkpt>
      <trkpt lat="44.90856" lon="0.97117">
        <ele>178</ele>
        <time>2021-07-10T10:01:12.000Z</time>
      </trkpt>
      <trkpt lat="44.90861" lon="0.97105">
        <ele>179</ele>
        <time>2021-07-10T10:01:20.000Z</time>
      </trkpt>
      <trkpt lat="44.90864" lon="0.97093">
        <ele>178</ele>
        <time>2021-07-10T10:01:28.000Z</time>
      </trkpt>
      <trkpt lat="44.9087" lon="0.97084">
        <ele>178</ele>
        <time>2021-07-10T10:01:36.000Z</time>
      </trkpt>
      <trkpt lat="44.90879" lon="0.97077">
        <ele>177</ele>
        <time>2021-07-10T10:01:44.000Z</time>
      </trkpt>
      <trkpt lat="44.90885" lon="0.97067">
        <ele>176</ele>
        <time>2021-07-10T10:01:51.000Z</time>
      </trkpt>
      <trkpt lat="44.90893" lon="0.97058">
        <ele>176</ele>
        <time>2021-07-10T10:01:58.000Z</time>
      </trkpt>
      <trkpt lat="44.90901" lon="0.9705">
        <ele>175</ele>
        <time>2021-07-10T10:02:05.000Z</time>
      </trkpt>
      <trkpt lat="44.90908" lon="0.97042">
        <ele>175</ele>
        <time>2021-07-10T10:02:12.000Z</time>
      </trkpt>
      <trkpt lat="44.90915" lon="0.97033">
        <ele>171</ele>
        <time>2021-07-10T10:02:21.000Z</time>
      </trkpt>
      <trkpt lat="44.90923" lon="0.97027">
        <ele>172</ele>
        <time>2021-07-10T10:02:29.000Z</time>
      </trkpt>
      <trkpt lat="44.90932" lon="0.97025">
        <ele>169</ele>
        <time>2021-07-10T10:02:38.000Z</time>
      </trkpt>
      <trkpt lat="44.90942" lon="0.97023">
        <ele>166</ele>
        <time>2021-07-10T10:02:48.000Z</time>
      </trkpt>
      <trkpt lat="44.9095" lon="0.97018">
        <ele>165</ele>
        <time>2021-07-10T10:02:55.000Z</time>
      </trkpt>
      <trkpt lat="44.90959" lon="0.97016">
        <ele>166</ele>
        <time>2021-07-10T10:03:02.000Z</time>
      </trkpt>
      <trkpt lat="44.90968" lon="0.97011">
        <ele>164</ele>
        <time>2021-07-10T10:03:11.000Z</time>
      </trkpt>
      <trkpt lat="44.90978" lon="0.97011">
        <ele>164</ele>
        <time>2021-07-10T10:03:33.000Z</time>
      </trkpt>
      <trkpt lat="44.90973" lon="0.97">
        <ele>160</ele>
        <time>2021-07-10T10:04:33.000Z</time>
      </trkpt>
      <trkpt lat="44.90964" lon="0.96994">
        <ele>160</ele>
        <time>2021-07-10T10:04:41.000Z</time>
      </trkpt>
      <trkpt lat="44.90955" lon="0.96993">
        <ele>161</ele>
        <time>2021-07-10T10:04:49.000Z</time>
      </trkpt>
      <trkpt lat="44.90945" lon="0.96995">
        <ele>161</ele>
        <time>2021-07-10T10:04:57.000Z</time>
      </trkpt>
      <trkpt lat="44.90936" lon="0.96997">
        <ele>159</ele>
        <time>2021-07-10T10:05:08.000Z</time>
      </trkpt>
      <trkpt lat="44.90927" lon="0.96994">
        <ele>156</ele>
        <time>2021-07-10T10:05:16.000Z</time>
      </trkpt>
      <trkpt lat="44.90917" lon="0.96992">
        <ele>154</ele>
        <time>2021-07-10T10:05:27.000Z</time>
      </trkpt>
      <trkpt lat="44.90907" lon="0.96993">
        <ele>152</ele>
        <time>2021-07-10T10:05:35.000Z</time>
      </trkpt>
      <trkpt lat="44.90898" lon="0.96996">
        <ele>150</ele>
        <time>2021-07-10T10:05:45.000Z</time>
      </trkpt>
      <trkpt lat="44.90888" lon="0.96998">
        <ele>144</ele>
        <time>2021-07-10T10:06:15.000Z</time>
      </trkpt>
      <trkpt lat="44.9088" lon="0.97004">
        <ele>144</ele>
        <time>2021-07-10T10:06:30.000Z</time>
      </trkpt>
      <trkpt lat="44.90874" lon="0.97014">
        <ele>144</ele>
        <time>2021-07-10T10:06:43.000Z</time>
      </trkpt>
      <trkpt lat="44.90869" lon="0.97024">
        <ele>146</ele>
        <time>2021-07-10T10:06:55.000Z</time>
      </trkpt>
      <trkpt lat="44.90863" lon="0.97037">
        <ele>148</ele>
        <time>2021-07-10T10:07:08.000Z</time>
      </trkpt>
      <trkpt lat="44.90857" lon="0.97047">
        <ele>150</ele>
        <time>2021-07-10T10:07:18.000Z</time>
      </trkpt>
      <trkpt lat="44.90853" lon="0.97059">
        <ele>149</ele>
        <time>2021-07-10T10:07:27.000Z</time>
      </trkpt>
      <trkpt lat="44.90847" lon="0.97069">
        <ele>150</ele>
        <time>2021-07-10T10:07:39.000Z</time>
      </trkpt>
      <trkpt lat="44.90845" lon="0.97081">
        <ele>152</ele>
        <time>2021-07-10T10:07:50.000Z</time>
      </trkpt>
      <trkpt lat="44.9084" lon="0.97092">
        <ele>151</ele>
        <time>2021-07-10T10:08:01.000Z</time>
      </trkpt>
      <trkpt lat="44.90834" lon="0.97105">
        <ele>150</ele>
        <time>2021-07-10T10:08:14.000Z</time>
      </trkpt>
      <trkpt lat="44.90827" lon="0.97114">
        <ele>151</ele>
        <time>2021-07-10T10:08:21.000Z</time>
      </trkpt>
      <trkpt lat="44.9082" lon="0.97122">
        <ele>150</ele>
        <time>2021-07-10T10:08:29.000Z</time>
      </trkpt>
      <trkpt lat="44.90817" lon="0.97134">
        <ele>149</ele>
        <time>2021-07-10T10:08:38.000Z</time>
      </trkpt>
      <trkpt lat="44.90812" lon="0.97146">
        <ele>152</ele>
        <time>2021-07-10T10:08:48.000Z</time>
      </trkpt>
      <trkpt lat="44.90807" lon="0.97158">
        <ele>153</ele>
        <time>2021-07-10T10:08:59.000Z</time>
      </trkpt>
      <trkpt lat="44.90803" lon="0.9717">
        <ele>153</ele>
        <time>2021-07-10T10:09:07.000Z</time>
      </trkpt>
      <trkpt lat="44.90799" lon="0.97182">
        <ele>153</ele>
        <time>2021-07-10T10:09:16.000Z</time>
      </trkpt>
      <trkpt lat="44.90792" lon="0.97192">
        <ele>148</ele>
        <time>2021-07-10T10:10:56.000Z</time>
      </trkpt>
      <trkpt lat="44.9079" lon="0.97205">
        <ele>149</ele>
        <time>2021-07-10T10:11:06.000Z</time>
      </trkpt>
      <trkpt lat="44.90786" lon="0.97217">
        <ele>148</ele>
        <time>2021-07-10T10:11:15.000Z</time>
      </trkpt>
      <trkpt lat="44.9078" lon="0.97229">
        <ele>147</ele>
        <time>2021-07-10T10:11:23.000Z</time>
      </trkpt>
      <trkpt lat="44.90776" lon="0.97243">
        <ele>148</ele>
        <time>2021-07-10T10:11:32.000Z</time>
      </trkpt>
      <trkpt lat="44.90773" lon="0.97256">
        <ele>147</ele>
        <time>2021-07-10T10:11:40.000Z</time>
      </trkpt>
      <trkpt lat="44.90771" lon="0.97269">
        <ele>147</ele>
        <time>2021-07-10T10:11:47.000Z</time>
      </trkpt>
      <trkpt lat="44.90769" lon="0.97282">
        <ele>147</ele>
        <time>2021-07-10T10:11:56.000Z</time>
      </trkpt>
      <trkpt lat="44.90768" lon="0.97296">
        <ele>148</ele>
        <time>2021-07-10T10:12:03.000Z</time>
      </trkpt>
      <trkpt lat="44.90765" lon="0.97309">
        <ele>148</ele>
        <time>2021-07-10T10:12:11.000Z</time>
      </trkpt>
      <trkpt lat="44.90762" lon="0.97322">
        <ele>148</ele>
        <time>2021-07-10T10:12:21.000Z</time>
      </trkpt>
      <trkpt lat="44.90761" lon="0.97335">
        <ele>149</ele>
        <time>2021-07-10T10:12:32.000Z</time>
      </trkpt>
      <trkpt lat="44.90759" lon="0.9735">
        <ele>152</ele>
        <time>2021-07-10T10:12:42.000Z</time>
      </trkpt>
      <trkpt lat="44.90758" lon="0.97363">
        <ele>150</ele>
        <time>2021-07-10T10:12:49.000Z</time>
      </trkpt>
      <trkpt lat="44.90755" lon="0.97376">
        <ele>152</ele>
        <time>2021-07-10T10:12:59.000Z</time>
      </trkpt>
      <trkpt lat="44.9075" lon="0.97388">
        <ele>152</ele>
        <time>2021-07-10T10:13:08.000Z</time>
      </trkpt>
      <trkpt lat="44.90747" lon="0.97401">
        <ele>153</ele>
        <time>2021-07-10T10:13:15.000Z</time>
      </trkpt>
      <trkpt lat="44.90738" lon="0.97397">
        <ele>151</ele>
        <time>2021-07-10T10:13:44.000Z</time>
      </trkpt>
      <trkpt lat="44.90738" lon="0.97384">
        <ele>152</ele>
        <time>2021-07-10T10:13:53.000Z</time>
      </trkpt>
      <trkpt lat="44.90739" lon="0.97371">
        <ele>152</ele>
        <time>2021-07-10T10:14:02.000Z</time>
      </trkpt>
      <trkpt lat="44.90735" lon="0.97359">
        <ele>150</ele>
        <time>2021-07-10T10:14:13.000Z</time>
      </trkpt>
      <trkpt lat="44.90727" lon="0.97364">
        <ele>143</ele>
        <time>2021-07-10T10:14:37.000Z</time>
      </trkpt>
      <trkpt lat="44.90726" lon="0.97377">
        <ele>143</ele>
        <time>2021-07-10T10:14:44.000Z</time>
      </trkpt>
      <trkpt lat="44.90722" lon="0.9739">
        <ele>142</ele>
        <time>2021-07-10T10:14:53.000Z</time>
      </trkpt>
      <trkpt lat="44.90717" lon="0.974">
        <ele>140</ele>
        <time>2021-07-10T10:15:00.000Z</time>
      </trkpt>
      <trkpt lat="44.90709" lon="0.97407">
        <ele>137</ele>
        <time>2021-07-10T10:15:13.000Z</time>
      </trkpt>
      <trkpt lat="44.90702" lon="0.97416">
        <ele>133</ele>
        <time>2021-07-10T10:15:24.000Z</time>
      </trkpt>
      <trkpt lat="44.90697" lon="0.97428">
        <ele>130</ele>
        <time>2021-07-10T10:15:32.000Z</time>
      </trkpt>
      <trkpt lat="44.90691" lon="0.97438">
        <ele>131</ele>
        <time>2021-07-10T10:15:40.000Z</time>
      </trkpt>
      <trkpt lat="44.90689" lon="0.97451">
        <ele>131</ele>
        <time>2021-07-10T10:15:48.000Z</time>
      </trkpt>
      <trkpt lat="44.90687" lon="0.97464">
        <ele>130</ele>
        <time>2021-07-10T10:15:57.000Z</time>
      </trkpt>
      <trkpt lat="44.9068" lon="0.97473">
        <ele>126</ele>
        <time>2021-07-10T10:16:16.000Z</time>
      </trkpt>
    </trkseg>
  </trk>
</gpx>